sensor_id;sensor_type;location;lat;lon;timestamp;temperature;humidity
41882;DHT22;27562;47.524;12.404;2023-02-01T00:00:30;0.40;99.90
41882;DHT22;27562;47.524;12.404;2023-02-01T00:02:58;0.50;99.90
41882;DHT22;27562;47.524;12.404;2023-02-01T00:05:24;0.50;99.90
41882;DHT22;27562;47.524;12.404;2023-02-01T00:07:49;0.40;99.90
41882;DHT22;27562;47.524;12.404;2023-02-01T00:10:15;0.40;99.90
41882;DHT22;27562;47.524;12.404;2023-02-01T00:12:41;0.50;99.90
41882;DHT22;27562;47.524;12.404;2023-02-01T00:15:07;0.50;99.90
41882;DHT22;27562;47.524;12.404;2023-02-01T00:17:32;0.50;99.90
41882;DHT22;27562;47.524;12.404;2023-02-01T00:19:58;0.50;99.90
41882;DHT22;27562;47.524;12.404;2023-02-01T00:22:24;0.50;99.90
41882;DHT22;27562;47.524;12.404;2023-02-01T00:24:49;0.60;99.90
41882;DHT22;27562;47.524;12.404;2023-02-01T00:27:15;0.60;99.90
41882;DHT22;27562;47.524;12.404;2023-02-01T00:29:43;0.60;99.90
41882;DHT22;27562;47.524;12.404;2023-02-01T00:32:09;0.60;99.90
41882;DHT22;27562;47.524;12.404;2023-02-01T00:34:35;0.60;99.90
41882;DHT22;27562;47.524;12.404;2023-02-01T00:37:00;0.60;99.90
41882;DHT22;27562;47.524;12.404;2023-02-01T00:39:26;0.60;99.90
41882;DHT22;27562;47.524;12.404;2023-02-01T00:41:52;0.50;99.90
41882;DHT22;27562;47.524;12.404;2023-02-01T00:44:17;0.50;99.90
41882;DHT22;27562;47.524;12.404;2023-02-01T00:46:43;0.50;99.90
41882;DHT22;27562;47.524;12.404;2023-02-01T00:49:08;0.50;99.90
41882;DHT22;27562;47.524;12.404;2023-02-01T00:51:34;0.50;99.90
41882;DHT22;27562;47.524;12.404;2023-02-01T00:54:00;0.50;99.90
41882;DHT22;27562;47.524;12.404;2023-02-01T00:56:25;0.50;99.90
41882;DHT22;27562;47.524;12.404;2023-02-01T00:58:52;0.40;99.90
41882;DHT22;27562;47.524;12.404;2023-02-01T01:01:20;0.40;99.90
41882;DHT22;27562;47.524;12.404;2023-02-01T01:03:47;0.40;99.90
41882;DHT22;27562;47.524;12.404;2023-02-01T01:06:14;0.40;99.90
41882;DHT22;27562;47.524;12.404;2023-02-01T01:08:40;0.40;99.90
41882;DHT22;27562;47.524;12.404;2023-02-01T01:11:16;0.40;99.90
41882;DHT22;27562;47.524;12.404;2023-02-01T01:13:42;0.30;99.90
41882;DHT22;27562;47.524;12.404;2023-02-01T01:16:09;0.30;99.90
41882;DHT22;27562;47.524;12.404;2023-02-01T01:18:35;0.30;99.90
41882;DHT22;27562;47.524;12.404;2023-02-01T01:21:01;0.30;99.90
41882;DHT22;27562;47.524;12.404;2023-02-01T01:23:27;0.30;99.90
41882;DHT22;27562;47.524;12.404;2023-02-01T01:25:53;0.30;99.90
41882;DHT22;27562;47.524;12.404;2023-02-01T01:28:18;0.30;99.90
41882;DHT22;27562;47.524;12.404;2023-02-01T01:30:44;0.30;99.90
41882;DHT22;27562;47.524;12.404;2023-02-01T01:33:10;0.20;99.90
41882;DHT22;27562;47.524;12.404;2023-02-01T01:35:35;0.20;99.90
41882;DHT22;27562;47.524;12.404;2023-02-01T01:38:01;0.20;99.90
41882;DHT22;27562;47.524;12.404;2023-02-01T01:40:27;0.20;99.90
41882;DHT22;27562;47.524;12.404;2023-02-01T01:42:53;0.20;99.90
41882;DHT22;27562;47.524;12.404;2023-02-01T01:45:21;0.20;99.90
41882;DHT22;27562;47.524;12.404;2023-02-01T01:47:48;0.20;99.90
41882;DHT22;27562;47.524;12.404;2023-02-01T01:50:16;0.20;99.90
41882;DHT22;27562;47.524;12.404;2023-02-01T01:52:42;0.20;99.90
41882;DHT22;27562;47.524;12.404;2023-02-01T01:55:09;0.20;99.90
41882;DHT22;27562;47.524;12.404;2023-02-01T01:57:40;0.20;99.90
41882;DHT22;27562;47.524;12.404;2023-02-01T02:00:11;0.10;99.90
41882;DHT22;27562;47.524;12.404;2023-02-01T02:02:38;0.20;99.90
41882;DHT22;27562;47.524;12.404;2023-02-01T02:05:04;0.20;99.90
41882;DHT22;27562;47.524;12.404;2023-02-01T02:07:30;0.20;99.90
41882;DHT22;27562;47.524;12.404;2023-02-01T02:09:57;0.20;99.90
41882;DHT22;27562;47.524;12.404;2023-02-01T02:12:23;0.20;99.90
41882;DHT22;27562;47.524;12.404;2023-02-01T02:14:48;0.20;99.90
41882;DHT22;27562;47.524;12.404;2023-02-01T02:22:46;0.10;99.90
41882;DHT22;27562;47.524;12.404;2023-02-01T02:28:05;0.10;99.90
41882;DHT22;27562;47.524;12.404;2023-02-01T02:33:28;0.10;99.90
41882;DHT22;27562;47.524;12.404;2023-02-01T02:38:34;0.10;99.90
41882;DHT22;27562;47.524;12.404;2023-02-01T02:41:05;0.10;99.90
41882;DHT22;27562;47.524;12.404;2023-02-01T02:43:34;0.00;99.90
41882;DHT22;27562;47.524;12.404;2023-02-01T02:46:24;0.00;99.90
41882;DHT22;27562;47.524;12.404;2023-02-01T02:49:12;0.00;99.90
41882;DHT22;27562;47.524;12.404;2023-02-01T02:51:41;-0.10;99.90
41882;DHT22;27562;47.524;12.404;2023-02-01T02:54:37;-0.10;99.90
41882;DHT22;27562;47.524;12.404;2023-02-01T03:00:12;-0.10;99.90
41882;DHT22;27562;47.524;12.404;2023-02-01T03:02:57;-0.10;99.90
41882;DHT22;27562;47.524;12.404;2023-02-01T03:05:43;-0.10;99.90
41882;DHT22;27562;47.524;12.404;2023-02-01T03:08:16;-0.10;99.90
41882;DHT22;27562;47.524;12.404;2023-02-01T03:10:49;-0.10;99.90
41882;DHT22;27562;47.524;12.404;2023-02-01T03:16:00;-0.20;99.90
41882;DHT22;27562;47.524;12.404;2023-02-01T03:19:29;-0.20;99.90
41882;DHT22;27562;47.524;12.404;2023-02-01T03:23:55;-0.30;99.90
41882;DHT22;27562;47.524;12.404;2023-02-01T03:26:22;-0.40;99.90
41882;DHT22;27562;47.524;12.404;2023-02-01T03:28:51;-0.40;99.90
41882;DHT22;27562;47.524;12.404;2023-02-01T03:31:18;-0.40;99.90
41882;DHT22;27562;47.524;12.404;2023-02-01T03:33:43;-0.30;99.90
41882;DHT22;27562;47.524;12.404;2023-02-01T03:36:12;-0.30;99.90
41882;DHT22;27562;47.524;12.404;2023-02-01T03:38:47;-0.20;99.90
41882;DHT22;27562;47.524;12.404;2023-02-01T03:41:58;-0.30;99.90
41882;DHT22;27562;47.524;12.404;2023-02-01T03:44:15;-0.20;99.90
41882;DHT22;27562;47.524;12.404;2023-02-01T03:46:42;-0.20;99.90
41882;DHT22;27562;47.524;12.404;2023-02-01T03:49:11;-0.20;99.90
41882;DHT22;27562;47.524;12.404;2023-02-01T03:51:40;-0.30;99.90
41882;DHT22;27562;47.524;12.404;2023-02-01T03:54:06;-0.30;99.90
41882;DHT22;27562;47.524;12.404;2023-02-01T03:56:34;-0.30;99.90
41882;DHT22;27562;47.524;12.404;2023-02-01T03:59:01;-0.40;99.90
41882;DHT22;27562;47.524;12.404;2023-02-01T04:01:27;-0.40;99.90
41882;DHT22;27562;47.524;12.404;2023-02-01T04:03:53;-0.40;99.90
41882;DHT22;27562;47.524;12.404;2023-02-01T04:06:19;-0.40;99.90
41882;DHT22;27562;47.524;12.404;2023-02-01T04:08:45;-0.40;99.90
41882;DHT22;27562;47.524;12.404;2023-02-01T04:11:10;-0.40;99.90
41882;DHT22;27562;47.524;12.404;2023-02-01T04:13:36;-0.40;99.90
41882;DHT22;27562;47.524;12.404;2023-02-01T04:16:01;-0.40;99.90
41882;DHT22;27562;47.524;12.404;2023-02-01T04:18:27;-0.40;99.90
41882;DHT22;27562;47.524;12.404;2023-02-01T04:20:53;-0.40;99.90
41882;DHT22;27562;47.524;12.404;2023-02-01T04:23:19;-0.50;99.90
41882;DHT22;27562;47.524;12.404;2023-02-01T04:25:44;-0.50;99.90
41882;DHT22;27562;47.524;12.404;2023-02-01T04:28:10;-0.50;99.90
41882;DHT22;27562;47.524;12.404;2023-02-01T04:30:35;-0.50;99.90
41882;DHT22;27562;47.524;12.404;2023-02-01T04:33:01;-0.50;99.90
41882;DHT22;27562;47.524;12.404;2023-02-01T04:35:28;-0.40;99.90
41882;DHT22;27562;47.524;12.404;2023-02-01T04:37:54;-0.40;99.90
41882;DHT22;27562;47.524;12.404;2023-02-01T04:40:19;-0.40;99.90
41882;DHT22;27562;47.524;12.404;2023-02-01T04:42:45;-0.40;99.90
41882;DHT22;27562;47.524;12.404;2023-02-01T04:45:11;-0.50;99.90
41882;DHT22;27562;47.524;12.404;2023-02-01T04:47:36;-0.40;99.90
41882;DHT22;27562;47.524;12.404;2023-02-01T04:50:02;-0.40;99.90
41882;DHT22;27562;47.524;12.404;2023-02-01T04:52:27;-0.40;99.90
41882;DHT22;27562;47.524;12.404;2023-02-01T04:54:53;-0.50;99.90
41882;DHT22;27562;47.524;12.404;2023-02-01T04:57:22;-0.50;99.90
41882;DHT22;27562;47.524;12.404;2023-02-01T04:59:48;-0.50;99.90
41882;DHT22;27562;47.524;12.404;2023-02-01T05:02:14;-0.50;99.90
41882;DHT22;27562;47.524;12.404;2023-02-01T05:04:39;-0.60;99.90
41882;DHT22;27562;47.524;12.404;2023-02-01T05:07:05;-0.60;99.90
41882;DHT22;27562;47.524;12.404;2023-02-01T05:09:30;-0.70;99.90
41882;DHT22;27562;47.524;12.404;2023-02-01T05:11:56;-0.70;99.90
41882;DHT22;27562;47.524;12.404;2023-02-01T05:14:40;-0.70;99.90
41882;DHT22;27562;47.524;12.404;2023-02-01T05:17:06;-0.80;99.90
41882;DHT22;27562;47.524;12.404;2023-02-01T05:19:31;-0.80;99.90
41882;DHT22;27562;47.524;12.404;2023-02-01T05:21:57;-0.70;99.90
41882;DHT22;27562;47.524;12.404;2023-02-01T05:24:22;-0.70;99.90
41882;DHT22;27562;47.524;12.404;2023-02-01T05:26:48;-0.70;99.90
41882;DHT22;27562;47.524;12.404;2023-02-01T05:29:14;-0.70;99.90
41882;DHT22;27562;47.524;12.404;2023-02-01T05:31:40;-0.70;99.90
41882;DHT22;27562;47.524;12.404;2023-02-01T05:34:06;-0.70;99.90
41882;DHT22;27562;47.524;12.404;2023-02-01T05:36:32;-0.70;99.90
41882;DHT22;27562;47.524;12.404;2023-02-01T05:38:58;-0.70;99.90
41882;DHT22;27562;47.524;12.404;2023-02-01T05:41:24;-0.70;99.90
41882;DHT22;27562;47.524;12.404;2023-02-01T05:43:49;-0.70;99.90
41882;DHT22;27562;47.524;12.404;2023-02-01T05:46:15;-0.70;99.90
41882;DHT22;27562;47.524;12.404;2023-02-01T05:48:41;-0.70;99.90
41882;DHT22;27562;47.524;12.404;2023-02-01T05:51:06;-0.70;99.90
41882;DHT22;27562;47.524;12.404;2023-02-01T05:53:32;-0.70;99.90
41882;DHT22;27562;47.524;12.404;2023-02-01T05:55:58;-0.70;99.90
41882;DHT22;27562;47.524;12.404;2023-02-01T05:58:24;-0.70;99.90
41882;DHT22;27562;47.524;12.404;2023-02-01T06:00:49;-0.70;99.90
41882;DHT22;27562;47.524;12.404;2023-02-01T06:03:15;-0.70;99.90
41882;DHT22;27562;47.524;12.404;2023-02-01T06:05:43;-0.60;99.90
41882;DHT22;27562;47.524;12.404;2023-02-01T06:08:08;-0.60;99.90
41882;DHT22;27562;47.524;12.404;2023-02-01T06:10:34;-0.60;99.90
41882;DHT22;27562;47.524;12.404;2023-02-01T06:13:00;-0.60;99.90
41882;DHT22;27562;47.524;12.404;2023-02-01T06:15:25;-0.60;99.90
41882;DHT22;27562;47.524;12.404;2023-02-01T06:17:51;-0.60;99.90
41882;DHT22;27562;47.524;12.404;2023-02-01T06:20:16;-0.60;99.90
41882;DHT22;27562;47.524;12.404;2023-02-01T06:22:42;-0.60;99.90
41882;DHT22;27562;47.524;12.404;2023-02-01T06:25:08;-0.60;99.90
41882;DHT22;27562;47.524;12.404;2023-02-01T06:27:34;-0.50;99.90
41882;DHT22;27562;47.524;12.404;2023-02-01T06:30:01;-0.50;99.90
41882;DHT22;27562;47.524;12.404;2023-02-01T06:32:26;-0.50;99.90
41882;DHT22;27562;47.524;12.404;2023-02-01T06:34:52;-0.40;99.90
41882;DHT22;27562;47.524;12.404;2023-02-01T06:37:18;-0.40;99.90
41882;DHT22;27562;47.524;12.404;2023-02-01T06:39:44;-0.40;99.90
41882;DHT22;27562;47.524;12.404;2023-02-01T06:42:10;-0.40;99.90
41882;DHT22;27562;47.524;12.404;2023-02-01T06:44:47;-0.40;99.90
41882;DHT22;27562;47.524;12.404;2023-02-01T06:47:19;-0.40;99.90
41882;DHT22;27562;47.524;12.404;2023-02-01T06:49:45;-0.40;99.90
41882;DHT22;27562;47.524;12.404;2023-02-01T06:52:11;-0.40;99.90
41882;DHT22;27562;47.524;12.404;2023-02-01T06:54:36;-0.30;99.90
41882;DHT22;27562;47.524;12.404;2023-02-01T06:57:02;-0.40;99.90
41882;DHT22;27562;47.524;12.404;2023-02-01T06:59:28;-0.40;99.90
41882;DHT22;27562;47.524;12.404;2023-02-01T07:01:54;-0.40;99.90
41882;DHT22;27562;47.524;12.404;2023-02-01T07:04:19;-0.40;99.90
41882;DHT22;27562;47.524;12.404;2023-02-01T07:06:45;-0.30;99.90
41882;DHT22;27562;47.524;12.404;2023-02-01T07:09:11;-0.30;99.90
41882;DHT22;27562;47.524;12.404;2023-02-01T07:11:37;-0.30;99.90
41882;DHT22;27562;47.524;12.404;2023-02-01T07:14:06;-0.30;99.90
41882;DHT22;27562;47.524;12.404;2023-02-01T07:16:31;-0.30;99.90
41882;DHT22;27562;47.524;12.404;2023-02-01T07:18:59;-0.30;99.90
41882;DHT22;27562;47.524;12.404;2023-02-01T07:21:32;-0.30;99.90
41882;DHT22;27562;47.524;12.404;2023-02-01T07:24:03;-0.30;99.90
41882;DHT22;27562;47.524;12.404;2023-02-01T07:26:44;-0.30;99.90
41882;DHT22;27562;47.524;12.404;2023-02-01T07:29:13;-0.30;99.90
41882;DHT22;27562;47.524;12.404;2023-02-01T07:31:42;-0.30;99.90
41882;DHT22;27562;47.524;12.404;2023-02-01T07:34:09;-0.30;99.90
41882;DHT22;27562;47.524;12.404;2023-02-01T07:36:35;-0.20;99.90
41882;DHT22;27562;47.524;12.404;2023-02-01T07:39:02;-0.30;99.90
41882;DHT22;27562;47.524;12.404;2023-02-01T07:41:30;-0.20;99.90
41882;DHT22;27562;47.524;12.404;2023-02-01T07:44:04;-0.20;99.90
41882;DHT22;27562;47.524;12.404;2023-02-01T07:46:39;-0.20;99.90
41882;DHT22;27562;47.524;12.404;2023-02-01T07:49:04;-0.20;99.90
41882;DHT22;27562;47.524;12.404;2023-02-01T07:51:30;-0.10;99.90
41882;DHT22;27562;47.524;12.404;2023-02-01T07:57:06;-0.10;99.90
41882;DHT22;27562;47.524;12.404;2023-02-01T07:59:37;0.00;99.90
41882;DHT22;27562;47.524;12.404;2023-02-01T08:02:22;0.00;99.90
41882;DHT22;27562;47.524;12.404;2023-02-01T08:04:48;0.10;99.90
41882;DHT22;27562;47.524;12.404;2023-02-01T08:07:14;0.10;99.90
41882;DHT22;27562;47.524;12.404;2023-02-01T08:09:39;0.10;99.90
41882;DHT22;27562;47.524;12.404;2023-02-01T08:12:05;0.20;99.90
41882;DHT22;27562;47.524;12.404;2023-02-01T08:14:31;0.20;99.90
41882;DHT22;27562;47.524;12.404;2023-02-01T08:16:57;0.20;99.90
41882;DHT22;27562;47.524;12.404;2023-02-01T08:19:22;0.30;99.90
41882;DHT22;27562;47.524;12.404;2023-02-01T08:21:48;0.40;99.90
41882;DHT22;27562;47.524;12.404;2023-02-01T08:24:14;0.40;99.90
41882;DHT22;27562;47.524;12.404;2023-02-01T08:26:42;0.40;99.90
41882;DHT22;27562;47.524;12.404;2023-02-01T08:29:10;0.40;99.90
41882;DHT22;27562;47.524;12.404;2023-02-01T08:31:38;0.40;99.90
41882;DHT22;27562;47.524;12.404;2023-02-01T08:34:07;0.40;99.90
41882;DHT22;27562;47.524;12.404;2023-02-01T08:36:34;0.40;99.90
41882;DHT22;27562;47.524;12.404;2023-02-01T08:39:00;0.50;99.90
41882;DHT22;27562;47.524;12.404;2023-02-01T08:41:26;0.50;99.90
41882;DHT22;27562;47.524;12.404;2023-02-01T08:43:52;0.50;99.90
41882;DHT22;27562;47.524;12.404;2023-02-01T08:46:19;0.60;99.90
41882;DHT22;27562;47.524;12.404;2023-02-01T08:48:45;0.60;99.90
41882;DHT22;27562;47.524;12.404;2023-02-01T08:51:12;0.70;99.90
41882;DHT22;27562;47.524;12.404;2023-02-01T08:53:38;0.70;99.90
41882;DHT22;27562;47.524;12.404;2023-02-01T08:56:06;0.70;99.90
41882;DHT22;27562;47.524;12.404;2023-02-01T08:58:32;0.70;99.90
41882;DHT22;27562;47.524;12.404;2023-02-01T09:01:02;0.80;99.90
41882;DHT22;27562;47.524;12.404;2023-02-01T09:03:27;0.90;99.90
41882;DHT22;27562;47.524;12.404;2023-02-01T09:05:59;0.90;99.90
41882;DHT22;27562;47.524;12.404;2023-02-01T09:08:24;0.90;99.90
41882;DHT22;27562;47.524;12.404;2023-02-01T09:10:50;0.90;99.90
41882;DHT22;27562;47.524;12.404;2023-02-01T09:13:15;0.90;99.90
41882;DHT22;27562;47.524;12.404;2023-02-01T09:15:41;0.90;99.90
41882;DHT22;27562;47.524;12.404;2023-02-01T09:18:07;0.90;99.90
41882;DHT22;27562;47.524;12.404;2023-02-01T09:20:32;0.90;99.90
41882;DHT22;27562;47.524;12.404;2023-02-01T09:22:58;0.90;99.90
41882;DHT22;27562;47.524;12.404;2023-02-01T09:25:23;0.90;99.90
41882;DHT22;27562;47.524;12.404;2023-02-01T09:27:49;1.00;99.90
41882;DHT22;27562;47.524;12.404;2023-02-01T09:30:15;1.00;99.90
41882;DHT22;27562;47.524;12.404;2023-02-01T09:32:40;1.00;99.90
41882;DHT22;27562;47.524;12.404;2023-02-01T09:35:06;0.90;99.90
41882;DHT22;27562;47.524;12.404;2023-02-01T09:37:31;1.00;99.90
41882;DHT22;27562;47.524;12.404;2023-02-01T09:39:58;1.00;99.90
41882;DHT22;27562;47.524;12.404;2023-02-01T09:42:33;1.10;99.90
41882;DHT22;27562;47.524;12.404;2023-02-01T09:47:46;1.30;99.90
41882;DHT22;27562;47.524;12.404;2023-02-01T09:50:14;1.40;99.90
41882;DHT22;27562;47.524;12.404;2023-02-01T09:52:47;1.50;99.90
41882;DHT22;27562;47.524;12.404;2023-02-01T09:55:18;1.60;99.90
41882;DHT22;27562;47.524;12.404;2023-02-01T09:57:55;1.80;99.90
41882;DHT22;27562;47.524;12.404;2023-02-01T10:00:25;1.90;99.90
41882;DHT22;27562;47.524;12.404;2023-02-01T10:02:55;2.00;99.90
41882;DHT22;27562;47.524;12.404;2023-02-01T10:05:46;2.10;99.90
41882;DHT22;27562;47.524;12.404;2023-02-01T10:11:36;2.10;99.90
41882;DHT22;27562;47.524;12.404;2023-02-01T10:16:06;2.20;99.90
41882;DHT22;27562;47.524;12.404;2023-02-01T10:21:08;2.20;99.90
41882;DHT22;27562;47.524;12.404;2023-02-01T10:26:19;2.20;99.90
41882;DHT22;27562;47.524;12.404;2023-02-01T10:28:48;2.20;99.90
41882;DHT22;27562;47.524;12.404;2023-02-01T10:31:14;2.30;99.90
41882;DHT22;27562;47.524;12.404;2023-02-01T10:33:47;2.30;99.90
41882;DHT22;27562;47.524;12.404;2023-02-01T10:36:27;2.40;99.90
41882;DHT22;27562;47.524;12.404;2023-02-01T10:38:54;2.40;99.90
41882;DHT22;27562;47.524;12.404;2023-02-01T10:41:21;2.40;99.90
41882;DHT22;27562;47.524;12.404;2023-02-01T10:43:52;2.50;99.90
41882;DHT22;27562;47.524;12.404;2023-02-01T10:46:18;2.50;99.90
41882;DHT22;27562;47.524;12.404;2023-02-01T10:48:44;2.70;99.90
41882;DHT22;27562;47.524;12.404;2023-02-01T10:51:12;2.80;99.90
41882;DHT22;27562;47.524;12.404;2023-02-01T10:53:57;2.90;99.90
41882;DHT22;27562;47.524;12.404;2023-02-01T10:56:24;3.00;99.90
41882;DHT22;27562;47.524;12.404;2023-02-01T10:58:50;3.10;99.90
41882;DHT22;27562;47.524;12.404;2023-02-01T11:01:21;3.10;99.90
41882;DHT22;27562;47.524;12.404;2023-02-01T11:08:51;3.30;99.90
41882;DHT22;27562;47.524;12.404;2023-02-01T11:11:17;3.30;99.90
41882;DHT22;27562;47.524;12.404;2023-02-01T11:13:45;3.20;99.90
41882;DHT22;27562;47.524;12.404;2023-02-01T11:16:16;3.30;99.90
41882;DHT22;27562;47.524;12.404;2023-02-01T11:18:43;3.40;99.90
41882;DHT22;27562;47.524;12.404;2023-02-01T11:21:09;3.50;99.90
41882;DHT22;27562;47.524;12.404;2023-02-01T11:23:39;3.60;99.90
41882;DHT22;27562;47.524;12.404;2023-02-01T11:26:24;3.60;99.90
41882;DHT22;27562;47.524;12.404;2023-02-01T11:28:56;3.70;99.90
41882;DHT22;27562;47.524;12.404;2023-02-01T11:31:23;3.80;99.90
41882;DHT22;27562;47.524;12.404;2023-02-01T11:33:51;3.80;99.90
41882;DHT22;27562;47.524;12.404;2023-02-01T11:36:20;3.80;99.90
41882;DHT22;27562;47.524;12.404;2023-02-01T11:38:54;3.80;99.90
41882;DHT22;27562;47.524;12.404;2023-02-01T11:41:39;3.90;99.90
41882;DHT22;27562;47.524;12.404;2023-02-01T11:44:18;3.90;99.90
41882;DHT22;27562;47.524;12.404;2023-02-01T11:46:45;3.80;99.90
41882;DHT22;27562;47.524;12.404;2023-02-01T11:49:19;3.80;99.90
41882;DHT22;27562;47.524;12.404;2023-02-01T11:51:54;3.70;99.90
41882;DHT22;27562;47.524;12.404;2023-02-01T12:14:45;4.10;99.90
41882;DHT22;27562;47.524;12.404;2023-02-01T12:30:24;4.30;99.90
41882;DHT22;27562;47.524;12.404;2023-02-01T12:43:46;4.40;99.90
41882;DHT22;27562;47.524;12.404;2023-02-01T12:46:16;4.40;99.90
41882;DHT22;27562;47.524;12.404;2023-02-01T12:48:57;4.30;99.90
41882;DHT22;27562;47.524;12.404;2023-02-01T12:51:25;4.30;99.90
41882;DHT22;27562;47.524;12.404;2023-02-01T12:56:22;4.30;99.90
41882;DHT22;27562;47.524;12.404;2023-02-01T12:58:52;4.30;99.90
41882;DHT22;27562;47.524;12.404;2023-02-01T13:01:39;4.30;99.90
41882;DHT22;27562;47.524;12.404;2023-02-01T13:04:10;4.30;99.90
41882;DHT22;27562;47.524;12.404;2023-02-01T13:06:39;4.30;99.90
41882;DHT22;27562;47.524;12.404;2023-02-01T13:11:42;4.20;99.90
41882;DHT22;27562;47.524;12.404;2023-02-01T13:16:42;4.10;99.90
41882;DHT22;27562;47.524;12.404;2023-02-01T13:22:07;4.10;99.90
41882;DHT22;27562;47.524;12.404;2023-02-01T13:24:44;4.10;99.90
41882;DHT22;27562;47.524;12.404;2023-02-01T13:27:11;4.00;99.90
41882;DHT22;27562;47.524;12.404;2023-02-01T13:29:37;3.90;99.90
41882;DHT22;27562;47.524;12.404;2023-02-01T13:32:10;3.90;99.90
41882;DHT22;27562;47.524;12.404;2023-02-01T13:42:27;3.70;99.90
41882;DHT22;27562;47.524;12.404;2023-02-01T13:44:58;3.90;99.90
41882;DHT22;27562;47.524;12.404;2023-02-01T13:47:29;4.00;99.90
41882;DHT22;27562;47.524;12.404;2023-02-01T13:49:58;4.10;99.90
41882;DHT22;27562;47.524;12.404;2023-02-01T13:52:38;4.10;99.90
41882;DHT22;27562;47.524;12.404;2023-02-01T13:57:45;4.20;99.90
41882;DHT22;27562;47.524;12.404;2023-02-01T14:02:50;4.40;99.90
41882;DHT22;27562;47.524;12.404;2023-02-01T14:08:07;4.60;99.90
41882;DHT22;27562;47.524;12.404;2023-02-01T14:13:24;4.50;99.90
41882;DHT22;27562;47.524;12.404;2023-02-01T14:23:43;4.30;99.90
41882;DHT22;27562;47.524;12.404;2023-02-01T14:26:11;4.30;99.90
41882;DHT22;27562;47.524;12.404;2023-02-01T14:28:41;4.30;99.90
41882;DHT22;27562;47.524;12.404;2023-02-01T14:33:55;4.20;99.90
41882;DHT22;27562;47.524;12.404;2023-02-01T14:36:21;4.20;99.90
41882;DHT22;27562;47.524;12.404;2023-02-01T14:38:48;4.20;99.90
41882;DHT22;27562;47.524;12.404;2023-02-01T14:41:33;4.20;99.90
41882;DHT22;27562;47.524;12.404;2023-02-01T14:49:12;4.20;99.90
41882;DHT22;27562;47.524;12.404;2023-02-01T14:51:37;4.20;99.90
41882;DHT22;27562;47.524;12.404;2023-02-01T14:54:03;4.20;99.90
41882;DHT22;27562;47.524;12.404;2023-02-01T14:56:29;4.10;99.90
41882;DHT22;27562;47.524;12.404;2023-02-01T14:59:13;4.10;99.90
41882;DHT22;27562;47.524;12.404;2023-02-01T15:01:46;4.10;99.90
41882;DHT22;27562;47.524;12.404;2023-02-01T15:04:17;4.10;99.90
41882;DHT22;27562;47.524;12.404;2023-02-01T15:06:53;4.00;99.90
41882;DHT22;27562;47.524;12.404;2023-02-01T15:10:04;3.90;99.90
41882;DHT22;27562;47.524;12.404;2023-02-01T15:15:02;3.80;99.90
41882;DHT22;27562;47.524;12.404;2023-02-01T15:17:25;3.70;99.90
41882;DHT22;27562;47.524;12.404;2023-02-01T15:19:54;3.60;99.90
41882;DHT22;27562;47.524;12.404;2023-02-01T15:22:20;3.60;99.90
41882;DHT22;27562;47.524;12.404;2023-02-01T15:24:51;3.60;99.90
41882;DHT22;27562;47.524;12.404;2023-02-01T15:27:17;3.50;99.90
41882;DHT22;27562;47.524;12.404;2023-02-01T15:29:43;3.50;99.90
41882;DHT22;27562;47.524;12.404;2023-02-01T15:32:15;3.50;99.90
41882;DHT22;27562;47.524;12.404;2023-02-01T15:34:52;3.40;99.90
41882;DHT22;27562;47.524;12.404;2023-02-01T15:37:20;3.40;99.90
41882;DHT22;27562;47.524;12.404;2023-02-01T15:42:33;3.40;99.90
41882;DHT22;27562;47.524;12.404;2023-02-01T15:44:58;3.40;99.90
41882;DHT22;27562;47.524;12.404;2023-02-01T15:47:25;3.40;99.90
41882;DHT22;27562;47.524;12.404;2023-02-01T15:49:52;3.40;99.90
41882;DHT22;27562;47.524;12.404;2023-02-01T15:52:39;3.40;99.90
41882;DHT22;27562;47.524;12.404;2023-02-01T15:55:06;3.40;99.90
41882;DHT22;27562;47.524;12.404;2023-02-01T15:57:38;3.40;99.90
41882;DHT22;27562;47.524;12.404;2023-02-01T16:00:25;3.30;99.90
41882;DHT22;27562;47.524;12.404;2023-02-01T16:03:04;3.40;99.90
41882;DHT22;27562;47.524;12.404;2023-02-01T16:05:34;3.30;99.90
41882;DHT22;27562;47.524;12.404;2023-02-01T16:08:03;3.30;99.90
41882;DHT22;27562;47.524;12.404;2023-02-01T16:10:29;3.20;99.90
41882;DHT22;27562;47.524;12.404;2023-02-01T16:12:55;3.30;99.90
41882;DHT22;27562;47.524;12.404;2023-02-01T16:15:26;3.30;99.90
41882;DHT22;27562;47.524;12.404;2023-02-01T16:17:51;3.30;99.90
41882;DHT22;27562;47.524;12.404;2023-02-01T16:20:17;3.30;99.90
41882;DHT22;27562;47.524;12.404;2023-02-01T16:22:43;3.30;99.90
41882;DHT22;27562;47.524;12.404;2023-02-01T16:25:08;3.30;99.90
41882;DHT22;27562;47.524;12.404;2023-02-01T16:27:34;3.40;99.90
41882;DHT22;27562;47.524;12.404;2023-02-01T16:30:00;3.40;99.90
41882;DHT22;27562;47.524;12.404;2023-02-01T16:32:25;3.50;99.90
41882;DHT22;27562;47.524;12.404;2023-02-01T16:34:51;3.50;99.90
41882;DHT22;27562;47.524;12.404;2023-02-01T16:37:22;3.50;99.90
41882;DHT22;27562;47.524;12.404;2023-02-01T16:39:48;3.50;99.90
41882;DHT22;27562;47.524;12.404;2023-02-01T16:42:14;3.60;99.90
41882;DHT22;27562;47.524;12.404;2023-02-01T16:44:40;3.60;99.90
41882;DHT22;27562;47.524;12.404;2023-02-01T16:47:24;3.60;99.90
41882;DHT22;27562;47.524;12.404;2023-02-01T16:49:50;3.60;99.90
41882;DHT22;27562;47.524;12.404;2023-02-01T16:52:17;3.70;99.90
41882;DHT22;27562;47.524;12.404;2023-02-01T16:54:43;3.80;99.90
41882;DHT22;27562;47.524;12.404;2023-02-01T16:57:12;3.90;99.90
41882;DHT22;27562;47.524;12.404;2023-02-01T16:59:39;3.90;99.90
41882;DHT22;27562;47.524;12.404;2023-02-01T17:02:04;3.90;99.90
41882;DHT22;27562;47.524;12.404;2023-02-01T17:04:30;3.90;99.90
41882;DHT22;27562;47.524;12.404;2023-02-01T17:06:56;3.80;99.90
41882;DHT22;27562;47.524;12.404;2023-02-01T17:09:23;3.80;99.90
41882;DHT22;27562;47.524;12.404;2023-02-01T17:11:50;3.80;99.90
41882;DHT22;27562;47.524;12.404;2023-02-01T17:14:17;3.80;99.90
41882;DHT22;27562;47.524;12.404;2023-02-01T17:16:45;3.90;99.90
41882;DHT22;27562;47.524;12.404;2023-02-01T17:19:16;3.90;99.90
41882;DHT22;27562;47.524;12.404;2023-02-01T17:21:47;3.90;99.90
41882;DHT22;27562;47.524;12.404;2023-02-01T17:24:15;3.90;99.90
41882;DHT22;27562;47.524;12.404;2023-02-01T17:26:44;3.80;99.90
41882;DHT22;27562;47.524;12.404;2023-02-01T17:29:10;3.80;99.90
41882;DHT22;27562;47.524;12.404;2023-02-01T17:31:37;3.80;99.90
41882;DHT22;27562;47.524;12.404;2023-02-01T17:34:03;3.90;99.90
41882;DHT22;27562;47.524;12.404;2023-02-01T17:36:37;4.00;99.90
41882;DHT22;27562;47.524;12.404;2023-02-01T17:39:04;3.90;99.90
41882;DHT22;27562;47.524;12.404;2023-02-01T17:41:30;3.90;99.90
41882;DHT22;27562;47.524;12.404;2023-02-01T17:43:56;3.90;99.90
41882;DHT22;27562;47.524;12.404;2023-02-01T17:46:21;3.90;99.90
41882;DHT22;27562;47.524;12.404;2023-02-01T17:48:52;3.80;99.90
41882;DHT22;27562;47.524;12.404;2023-02-01T17:51:24;3.80;99.90